Time;durP1;ratioP1;P1;durP2;ratioP2;P2;SDS_P1;SDS_P2;PMS_P1;PMS_P2;Temp;Humidity;BMP_temperature;BMP_pressure;BME280_temperature;BME280_humidity;BME280_pressure;Samples;Min_cycle;Max_cycle;Signal;HPM_P1;HPM_P2
2023/05/21 00:00:24;;;;;;;20.08;12.13;;;;;;;14.59;73.93;100026.41;5023180;28;20115;-79
2023/05/21 00:02:50;;;;;;;20.08;12.77;;;;;;;14.61;73.90;100022.56;5022704;28;20541;-79
2023/05/21 00:05:17;;;;;;;19.98;12.48;;;;;;;14.68;73.67;100012.91;5023127;28;20188;-78
2023/05/21 00:07:43;;;;;;;24.77;13.82;;;;;;;14.72;73.18;100024.13;5023160;28;20662;-79
2023/05/21 00:10:08;;;;;;;23.50;14.38;;;;;;;14.64;73.50;100022.84;5022441;28;20091;-79
2023/05/21 00:12:34;;;;;;;20.77;13.25;;;;;;;14.61;73.69;100014.31;5022612;28;20486;-78
2023/05/21 00:15:00;;;;;;;22.45;13.18;;;;;;;14.57;73.59;100017.66;5022388;28;20092;-79
2023/05/21 00:17:26;;;;;;;26.45;15.68;;;;;;;14.56;73.99;100016.00;5023271;28;20046;-78
2023/05/21 00:19:51;;;;;;;22.52;13.63;;;;;;;14.50;73.75;100011.69;5022171;28;20079;-78
2023/05/21 00:22:17;;;;;;;24.10;13.57;;;;;;;14.47;73.98;100002.09;5022958;28;20552;-79
2023/05/21 00:24:44;;;;;;;20.52;12.32;;;;;;;14.44;74.50;99996.38;5021475;28;20072;-79
2023/05/21 00:27:10;;;;;;;18.02;12.35;;;;;;;14.44;74.31;99999.91;5022689;28;20029;-79
2023/05/21 00:29:36;;;;;;;19.65;12.70;;;;;;;14.47;74.34;99995.78;5021998;28;20501;-79
2023/05/21 00:32:01;;;;;;;20.63;14.53;;;;;;;14.51;74.15;99985.88;5022874;28;20075;-79
2023/05/21 00:34:26;;;;;;;21.13;12.60;;;;;;;14.50;73.80;99989.75;5022725;28;20847;-80
2023/05/21 00:36:52;;;;;;;22.57;14.07;;;;;;;14.47;74.13;99995.78;5022440;28;20112;-80
2023/05/21 00:39:17;;;;;;;22.85;12.70;;;;;;;14.43;74.35;99991.97;5022267;28;20709;-79
2023/05/21 00:41:45;;;;;;;23.43;12.17;;;;;;;14.36;74.25;99990.38;5022665;28;20566;-79
2023/05/21 00:44:12;;;;;;;20.25;12.77;;;;;;;14.31;74.35;99993.16;5022634;28;20492;-79
2023/05/21 00:46:38;;;;;;;20.52;12.32;;;;;;;14.29;74.24;99992.63;5022391;28;20034;-79
2023/05/21 00:49:04;;;;;;;20.88;12.13;;;;;;;14.18;75.02;99994.59;5022068;28;21159;-79
2023/05/21 00:51:30;;;;;;;22.15;12.30;;;;;;;14.14;75.54;99987.25;5022817;28;20061;-79
2023/05/21 00:53:56;;;;;;;18.52;11.27;;;;;;;14.17;75.33;99981.19;5021943;28;20057;-79
2023/05/21 00:56:22;;;;;;;20.05;11.77;;;;;;;14.18;75.14;99988.28;5022101;28;20537;-78
2023/05/21 00:58:50;;;;;;;18.55;12.02;;;;;;;14.20;74.49;99983.34;5021121;28;20044;-79
2023/05/21 01:01:17;;;;;;;21.45;12.57;;;;;;;14.22;75.22;99978.38;5022922;28;20613;-77
2023/05/21 01:03:42;;;;;;;27.05;14.15;;;;;;;14.23;75.00;99980.03;5020779;28;20033;-77
2023/05/21 01:06:09;;;;;;;21.55;13.95;;;;;;;14.18;75.38;99972.66;5022031;28;20045;-77
2023/05/21 01:08:36;;;;;;;22.20;13.48;;;;;;;14.17;75.38;99975.69;5021664;28;20037;-77
2023/05/21 01:11:02;;;;;;;25.30;12.18;;;;;;;14.20;75.02;99978.69;5022217;28;20072;-77
2023/05/21 01:13:28;;;;;;;26.00;13.95;;;;;;;14.16;74.92;99974.03;5022276;28;20616;-77
2023/05/21 01:15:54;;;;;;;25.45;15.00;;;;;;;14.16;75.34;99974.03;5020517;28;20056;-77
2023/05/21 01:18:20;;;;;;;26.05;15.32;;;;;;;14.09;75.12;99971.63;5021350;28;20045;-77
2023/05/21 01:20:49;;;;;;;24.73;14.27;;;;;;;14.04;75.54;99972.47;5017656;28;20049;-78
2023/05/21 01:23:16;;;;;;;20.38;13.45;;;;;;;13.98;75.86;99968.13;5025456;28;20026;-77
2023/05/21 01:25:41;;;;;;;20.95;12.68;;;;;;;13.98;76.14;99974.44;5025605;28;20034;-77
2023/05/21 01:28:07;;;;;;;21.33;12.35;;;;;;;13.98;76.28;99979.09;5024753;28;20038;-77
2023/05/21 01:30:33;;;;;;;21.58;12.07;;;;;;;14.04;75.64;99963.41;5023809;28;20064;-77
2023/05/21 01:33:03;;;;;;;22.65;13.57;;;;;;;13.98;75.66;99973.59;5025051;28;20832;-77
2023/05/21 01:35:34;;;;;;;19.42;12.07;;;;;;;14.01;75.45;99964.81;5025264;28;20091;-77
2023/05/21 01:38:07;;;;;;;21.20;11.90;;;;;;;13.96;76.00;99965.66;5024449;28;20051;-77
2023/05/21 01:40:52;;;;;;;25.50;12.73;;;;;;;13.98;75.68;99957.97;5024981;28;20076;-78
2023/05/21 01:43:19;;;;;;;20.02;12.18;;;;;;;13.94;75.75;99962.38;5024888;28;20033;-77
2023/05/21 01:45:46;;;;;;;21.05;12.45;;;;;;;13.95;75.77;99961.28;5024914;28;20454;-77
2023/05/21 01:48:12;;;;;;;21.35;11.57;;;;;;;14.00;75.66;99960.44;5024549;28;20111;-77
2023/05/21 01:50:40;;;;;;;18.50;11.15;;;;;;;13.96;76.13;99956.63;5023993;28;20033;-77
2023/05/21 01:53:05;;;;;;;19.42;12.02;;;;;;;14.05;75.54;99952.19;5024845;28;20028;-77
2023/05/21 01:55:31;;;;;;;21.13;11.60;;;;;;;14.05;75.45;99954.94;5024815;28;20037;-76
2023/05/21 01:57:58;;;;;;;22.92;13.00;;;;;;;13.98;75.94;99957.97;5024424;28;20037;-77
2023/05/21 02:00:27;;;;;;;22.42;12.55;;;;;;;14.03;75.94;99959.06;5024262;28;20591;-77
2023/05/21 02:02:52;;;;;;;18.98;11.38;;;;;;;14.03;75.51;99959.06;5024330;28;20025;-77
2023/05/21 02:05:18;;;;;;;19.75;11.60;;;;;;;13.97;75.91;99955.53;5024302;28;20039;-77
2023/05/21 02:07:44;;;;;;;21.73;13.00;;;;;;;13.89;76.03;99946.78;5024585;28;20025;-77
2023/05/21 02:10:10;;;;;;;20.05;13.02;;;;;;;13.87;76.34;99945.44;5023987;28;21143;-77
2023/05/21 02:12:36;;;;;;;17.15;11.38;;;;;;;13.92;76.00;99944.59;5024349;28;20037;-77
2023/05/21 02:15:01;;;;;;;23.05;11.63;;;;;;;13.89;76.05;99948.72;5022573;28;20037;-77
2023/05/21 02:17:30;;;;;;;25.38;13.20;;;;;;;13.90;76.17;99944.88;5024232;28;20345;-77
2023/05/21 02:19:55;;;;;;;20.20;12.40;;;;;;;13.84;76.27;99948.75;5025542;28;20044;-77
2023/05/21 02:22:21;;;;;;;20.75;12.23;;;;;;;13.81;76.04;99946.56;5024296;28;20029;-77
2023/05/21 02:24:46;;;;;;;20.77;12.83;;;;;;;13.76;76.72;99944.69;5023921;28;20034;-77
2023/05/21 02:27:12;;;;;;;19.53;11.33;;;;;;;13.80;76.50;99943.00;5024590;28;20350;-76
2023/05/21 02:29:37;;;;;;;22.17;12.25;;;;;;;13.83;76.37;99945.16;5023916;28;20386;-76
2023/05/21 02:32:03;;;;;;;17.15;10.57;;;;;;;13.83;76.46;99938.91;5024399;28;20116;-77
2023/05/21 02:34:31;;;;;;;20.67;11.48;;;;;;;13.84;76.43;99935.03;5023784;28;20037;-77
2023/05/21 02:36:57;;;;;;;22.08;13.77;;;;;;;13.84;76.56;99941.34;5024103;28;20049;-77
2023/05/21 02:39:23;;;;;;;22.50;13.65;;;;;;;13.90;76.52;99933.91;5023592;28;20336;-77
2023/05/21 02:41:48;;;;;;;22.08;13.30;;;;;;;13.93;76.47;99935.28;5023928;28;20104;-77
2023/05/21 02:44:13;;;;;;;18.27;11.10;;;;;;;13.94;75.95;99928.66;5023923;28;20033;-77
2023/05/21 02:46:38;;;;;;;17.63;11.63;;;;;;;13.98;76.00;99932.50;5024267;28;20305;-78
2023/05/21 02:49:04;;;;;;;19.87;12.40;;;;;;;13.98;76.29;99935.22;5023262;28;20377;-79
2023/05/21 02:51:29;;;;;;;23.40;12.13;;;;;;;14.03;76.07;99943.44;5023287;28;20309;-78
2023/05/21 02:53:54;;;;;;;19.48;11.23;;;;;;;13.97;76.39;99939.88;5021878;28;20743;-78
2023/05/21 02:56:20;;;;;;;17.58;11.70;;;;;;;13.99;76.13;99937.69;5022874;28;20041;-79
2023/05/21 02:58:45;;;;;;;24.40;12.87;;;;;;;13.93;76.29;99933.34;5022800;28;20069;-79
2023/05/21 03:01:10;;;;;;;17.25;10.95;;;;;;;13.89;76.12;99937.78;5023469;28;20271;-79
2023/05/21 03:03:36;;;;;;;23.17;11.85;;;;;;;13.83;76.11;99934.22;5022704;28;20033;-78
2023/05/21 03:06:01;;;;;;;20.27;12.37;;;;;;;13.81;76.60;99936.41;5022933;28;20041;-79
2023/05/21 03:08:26;;;;;;;16.93;11.30;;;;;;;13.79;76.99;99935.88;5022438;28;20285;-79
2023/05/21 03:10:51;;;;;;;18.50;10.85;;;;;;;13.81;76.82;99941.91;5022541;28;20270;-78
2023/05/21 03:13:17;;;;;;;20.40;12.13;;;;;;;13.84;76.52;99935.88;5022689;28;20038;-78
2023/05/21 03:15:42;;;;;;;20.63;11.43;;;;;;;13.83;76.42;99931.47;5022317;28;20760;-78
2023/05/21 03:18:08;;;;;;;17.15;11.43;;;;;;;13.80;76.49;99932.06;5022149;28;20810;-78
2023/05/21 03:20:34;;;;;;;18.20;12.68;;;;;;;13.80;76.65;99917.53;5022616;28;20094;-78
2023/05/21 03:22:59;;;;;;;19.23;11.33;;;;;;;13.77;76.86;99929.84;5022628;28;20067;-78
2023/05/21 03:25:24;;;;;;;17.33;11.50;;;;;;;13.74;76.84;99923.03;5022653;28;20259;-79
2023/05/21 03:27:50;;;;;;;19.33;11.00;;;;;;;13.73;77.07;99924.13;5022097;28;20030;-79
2023/05/21 03:30:16;;;;;;;19.05;11.05;;;;;;;13.74;77.29;99911.25;5022810;28;20037;-79
2023/05/21 03:32:43;;;;;;;20.27;12.40;;;;;;;13.79;76.73;99916.69;5022207;28;20018;-79
2023/05/21 03:35:09;;;;;;;19.10;11.95;;;;;;;13.71;77.17;99918.13;5022243;28;20037;-78
2023/05/21 03:37:34;;;;;;;16.88;10.77;;;;;;;13.70;77.02;99923.88;5022546;28;20052;-78
2023/05/21 03:40:00;;;;;;;23.95;12.27;;;;;;;13.68;77.34;99924.16;5022051;28;20037;-79
2023/05/21 03:42:25;;;;;;;18.52;12.55;;;;;;;13.72;77.39;99918.94;5022454;28;20029;-79
2023/05/21 03:44:50;;;;;;;21.23;11.67;;;;;;;13.70;77.52;99907.44;5021597;28;20380;-78
2023/05/21 03:47:15;;;;;;;20.40;11.73;;;;;;;13.67;77.82;99903.34;5022099;28;20275;-78
2023/05/21 03:49:41;;;;;;;18.77;11.27;;;;;;;13.68;77.77;99915.94;5021622;28;20374;-79
2023/05/21 03:52:06;;;;;;;18.03;11.10;;;;;;;13.74;77.55;99909.34;5021848;28;20033;-79
2023/05/21 03:54:31;;;;;;;21.57;10.20;;;;;;;13.79;77.11;99921.38;5022004;28;20333;-78
2023/05/21 03:56:56;;;;;;;18.70;11.83;;;;;;;13.77;77.48;99919.72;5022209;28;21161;-79
2023/05/21 03:59:22;;;;;;;21.00;12.63;;;;;;;13.73;77.71;99934.28;5021620;28;20310;-78
2023/05/21 04:01:47;;;;;;;18.13;12.57;;;;;;;13.72;77.90;99927.16;5022016;28;20267;-78
2023/05/21 04:04:12;;;;;;;18.83;11.83;;;;;;;13.79;77.14;99930.41;5022102;28;20349;-79
2023/05/21 04:06:37;;;;;;;14.87;10.47;;;;;;;13.77;77.54;99924.38;5022034;28;21382;-78
2023/05/21 04:09:03;;;;;;;18.57;10.50;;;;;;;13.79;77.30;99924.13;5021744;28;20261;-78
2023/05/21 04:11:30;;;;;;;17.67;11.27;;;;;;;13.84;77.07;99927.66;5021996;28;20346;-79
2023/05/21 04:13:55;;;;;;;19.67;12.32;;;;;;;13.85;77.69;99921.03;5021695;28;20030;-79
2023/05/21 04:16:21;;;;;;;20.10;12.15;;;;;;;13.85;77.12;99929.25;5021906;28;20057;-78
2023/05/21 04:18:46;;;;;;;19.30;11.85;;;;;;;13.82;77.54;99927.09;5021503;28;20453;-79
2023/05/21 04:21:12;;;;;;;18.47;11.20;;;;;;;13.82;77.33;99924.38;5021950;28;20041;-78
2023/05/21 04:23:37;;;;;;;18.27;12.30;;;;;;;13.83;77.58;99922.44;5020228;28;20297;-78
2023/05/21 04:26:03;;;;;;;18.88;11.52;;;;;;;13.84;77.47;99924.91;5021963;28;20037;-78
2023/05/21 04:28:28;;;;;;;18.52;11.70;;;;;;;13.85;77.85;99926.53;5021577;28;20503;-78
2023/05/21 04:30:55;;;;;;;20.00;12.60;;;;;;;13.94;77.53;99923.19;5021805;28;20033;-79
2023/05/21 04:33:20;;;;;;;19.45;11.93;;;;;;;13.95;77.42;99931.13;5022188;28;20040;-79
2023/05/21 04:35:50;;;;;;;17.77;10.73;;;;;;;13.99;77.45;99934.94;5021283;28;20037;-78
2023/05/21 04:38:18;;;;;;;19.80;11.55;;;;;;;14.00;77.44;99927.53;5021420;28;20152;-79
2023/05/21 04:40:49;;;;;;;17.20;9.93;;;;;;;14.05;77.12;99923.97;5021723;28;20045;-78
2023/05/21 04:43:15;;;;;;;22.33;12.20;;;;;;;14.12;77.18;99940.91;5022132;28;20041;-79
2023/05/21 04:45:41;;;;;;;17.65;10.95;;;;;;;14.13;77.07;99939.81;5021449;28;20103;-78
2023/05/21 04:48:06;;;;;;;16.58;11.00;;;;;;;14.22;76.57;99937.25;5021318;28;20613;-78
2023/05/21 04:50:32;;;;;;;18.93;12.73;;;;;;;14.22;76.29;99937.25;5021777;28;20475;-79
2023/05/21 04:52:57;;;;;;;18.33;12.10;;;;;;;14.24;76.64;99935.06;5020374;28;20264;-80
2023/05/21 04:55:23;;;;;;;21.15;12.23;;;;;;;14.31;75.77;99935.56;5021489;28;20029;-78
2023/05/21 04:57:48;;;;;;;20.80;11.77;;;;;;;14.25;76.60;99939.44;5023797;28;20037;-79
2023/05/21 05:00:13;;;;;;;20.50;12.03;;;;;;;14.27;76.69;99926.28;5025082;28;20605;-79
2023/05/21 05:02:38;;;;;;;15.70;9.93;;;;;;;14.35;76.05;99933.06;5025221;28;20361;-79
2023/05/21 05:05:04;;;;;;;23.40;11.80;;;;;;;14.38;75.84;99932.47;5025384;28;20449;-78
2023/05/21 05:07:30;;;;;;;17.73;11.50;;;;;;;14.39;76.04;99930.56;5025157;28;20293;-78
2023/05/21 05:09:55;;;;;;;19.08;12.02;;;;;;;14.37;75.88;99930.84;5024802;28;20068;-78
2023/05/21 05:12:20;;;;;;;15.23;10.87;;;;;;;14.46;75.83;99923.63;5025148;28;20037;-78
2023/05/21 05:14:45;;;;;;;19.23;11.63;;;;;;;14.48;75.67;99921.44;5024817;28;20271;-78
2023/05/21 05:17:14;;;;;;;18.30;11.88;;;;;;;14.54;75.58;99929.63;5025006;28;20259;-79
2023/05/21 05:19:39;;;;;;;15.98;11.80;;;;;;;14.60;75.01;99917.50;5023263;28;20193;-78
2023/05/21 05:22:05;;;;;;;17.00;11.30;;;;;;;14.53;75.51;99928.81;5025037;28;20033;-78
2023/05/21 05:24:30;;;;;;;19.15;10.73;;;;;;;14.62;75.26;99920.78;5024888;28;20037;-78
2023/05/21 05:26:56;;;;;;;18.73;11.03;;;;;;;14.60;75.36;99923.00;5025050;28;20601;-79
2023/05/21 05:29:21;;;;;;;19.17;12.97;;;;;;;14.65;75.43;99917.44;5024435;28;20263;-78
2023/05/21 05:31:46;;;;;;;18.83;12.80;;;;;;;14.65;75.19;99927.59;5025086;28;20261;-79
2023/05/21 05:34:11;;;;;;;19.43;11.80;;;;;;;14.71;74.95;99921.78;5025209;28;20269;-78
2023/05/21 05:36:37;;;;;;;19.17;12.23;;;;;;;14.78;74.43;99923.38;5024662;28;20545;-79
2023/05/21 05:39:02;;;;;;;19.47;11.80;;;;;;;14.75;74.63;99930.25;5024153;28;20839;-78
2023/05/21 05:41:27;;;;;;;21.77;12.07;;;;;;;14.74;75.07;99925.88;5024583;28;20262;-78
2023/05/21 05:43:53;;;;;;;16.80;11.82;;;;;;;14.71;75.89;99927.28;5024575;28;20033;-79
2023/05/21 05:46:18;;;;;;;23.40;14.00;;;;;;;14.80;75.43;99924.72;5024257;28;20044;-78
2023/05/21 05:48:43;;;;;;;22.27;12.83;;;;;;;14.80;75.79;99921.97;5024037;28;20267;-78
2023/05/21 05:51:08;;;;;;;21.40;13.13;;;;;;;14.76;75.42;99926.41;5024475;28;20694;-79
2023/05/21 05:53:34;;;;;;;22.00;13.77;;;;;;;14.78;75.72;99929.69;5023819;28;20254;-79
2023/05/21 05:55:59;;;;;;;19.30;12.55;;;;;;;14.91;75.23;99927.38;5023857;28;20263;-78
2023/05/21 05:58:24;;;;;;;18.92;12.15;;;;;;;14.86;75.55;99922.78;5023122;28;20041;-78
2023/05/21 06:00:51;;;;;;;20.50;13.82;;;;;;;14.91;75.65;99919.13;5023795;28;20125;-78
2023/05/21 06:03:16;;;;;;;21.73;13.32;;;;;;;14.97;75.46;99922.69;5023827;28;20120;-77
2023/05/21 06:05:42;;;;;;;19.67;12.73;;;;;;;15.07;74.85;99913.50;5023372;28;20037;-78
2023/05/21 06:08:07;;;;;;;22.20;14.00;;;;;;;15.14;74.66;99920.28;5023190;28;20037;-78
2023/05/21 06:10:32;;;;;;;27.03;15.37;;;;;;;15.16;74.55;99919.97;5023672;28;20044;-79
2023/05/21 06:12:58;;;;;;;19.90;13.40;;;;;;;15.12;74.82;99921.69;5023085;28;20281;-78
2023/05/21 06:15:23;;;;;;;20.90;13.37;;;;;;;15.19;74.86;99926.81;5022780;28;20282;-77
2023/05/21 06:17:48;;;;;;;20.70;14.00;;;;;;;15.17;75.11;99913.41;5023445;28;20812;-78
2023/05/21 06:20:15;;;;;;;20.53;13.10;;;;;;;15.26;74.57;99916.28;5022772;28;20313;-78
2023/05/21 06:22:40;;;;;;;16.25;11.43;;;;;;;15.31;74.14;99910.75;5022942;28;20263;-78
2023/05/21 06:25:06;;;;;;;19.03;12.37;;;;;;;15.25;75.12;99917.41;5023224;28;20040;-78
2023/05/21 06:27:32;;;;;;;19.13;12.52;;;;;;;15.27;75.14;99918.78;5023062;28;20783;-79
2023/05/21 06:29:57;;;;;;;21.70;13.75;;;;;;;15.36;74.48;99918.09;5022342;28;20039;-79
2023/05/21 06:32:23;;;;;;;19.42;11.73;;;;;;;15.36;74.64;99927.16;5023212;28;20129;-79
2023/05/21 06:34:49;;;;;;;21.33;13.13;;;;;;;15.29;75.31;99915.72;5022272;28;20053;-79
2023/05/21 06:37:19;;;;;;;21.17;12.87;;;;;;;15.41;74.22;99912.56;5022809;28;20152;-79
2023/05/21 06:39:45;;;;;;;18.70;12.30;;;;;;;15.46;74.14;99915.22;5022366;28;20790;-80
2023/05/21 06:42:10;;;;;;;20.15;11.75;;;;;;;15.37;75.37;99909.59;5019975;28;20120;-79
2023/05/21 06:44:35;;;;;;;18.40;11.35;;;;;;;15.36;75.03;99896.13;5022053;28;20048;-79
2023/05/21 06:47:01;;;;;;;18.02;12.60;;;;;;;15.25;75.65;99907.25;5022798;28;20048;-79
2023/05/21 06:49:26;;;;;;;17.20;11.33;;;;;;;15.26;75.24;99902.56;5021790;28;20037;-81
2023/05/21 06:51:51;;;;;;;18.90;12.63;;;;;;;15.33;75.10;99899.47;5021881;28;20369;-80
2023/05/21 06:54:16;;;;;;;21.40;15.30;;;;;;;15.42;74.63;99897.69;5022510;28;20744;-78
2023/05/21 06:56:42;;;;;;;17.92;12.00;;;;;;;15.21;75.78;99902.63;5022795;28;20386;-80
2023/05/21 06:59:07;;;;;;;20.43;10.87;;;;;;;15.09;76.17;99901.13;5022381;28;20140;-79
2023/05/21 07:01:33;;;;;;;18.67;11.67;;;;;;;15.05;76.57;99905.56;5021662;28;20278;-79
2023/05/21 07:03:58;;;;;;;21.23;12.45;;;;;;;15.05;76.54;99895.38;5022843;28;20839;-78
2023/05/21 07:06:23;;;;;;;19.00;12.20;;;;;;;15.12;76.26;99895.03;5022516;28;20056;-79
2023/05/21 07:08:49;;;;;;;18.67;12.67;;;;;;;15.29;75.35;99883.56;5022151;28;20025;-78
2023/05/21 07:11:14;;;;;;;16.05;9.63;;;;;;;15.33;75.73;99894.81;5021935;28;20287;-80
2023/05/21 07:13:39;;;;;;;15.73;10.63;;;;;;;15.22;75.79;99888.59;5021116;28;20445;-81
2023/05/21 07:16:05;;;;;;;19.87;11.47;;;;;;;15.38;75.07;99883.75;5022302;28;20107;-79
2023/05/21 07:18:30;;;;;;;22.95;11.57;;;;;;;15.50;75.00;99880.56;5021679;28;20270;-79
2023/05/21 07:20:56;;;;;;;18.98;11.65;;;;;;;15.65;74.08;99878.72;5020776;28;20406;-79
2023/05/21 07:23:21;;;;;;;18.10;10.95;;;;;;;15.73;74.21;99880.81;5021376;28;20041;-78
2023/05/21 07:25:46;;;;;;;17.27;10.60;;;;;;;15.73;73.56;99880.81;5021271;28;20057;-80
2023/05/21 07:28:11;;;;;;;17.20;11.10;;;;;;;15.78;74.09;99876.34;5022160;28;20289;-80
2023/05/21 07:30:37;;;;;;;21.98;10.43;;;;;;;15.90;73.56;99882.22;5022117;28;20588;-79
2023/05/21 07:33:02;;;;;;;15.43;9.97;;;;;;;16.03;72.96;99885.38;5022804;28;20112;-81
2023/05/21 07:35:28;;;;;;;15.20;9.68;;;;;;;15.99;73.31;99890.59;5020891;28;20037;-79
2023/05/21 07:37:53;;;;;;;19.88;11.60;;;;;;;16.09;72.73;99884.97;5021749;28;20120;-79
2023/05/21 07:40:18;;;;;;;15.40;10.00;;;;;;;16.06;73.36;99890.25;5021997;28;20044;-80
2023/05/21 07:42:43;;;;;;;17.70;11.20;;;;;;;16.09;73.76;99884.16;5021124;28;20045;-81
2023/05/21 07:45:09;;;;;;;17.55;11.15;;;;;;;16.07;73.46;99884.44;5022014;28;20309;-79
2023/05/21 07:47:34;;;;;;;17.60;10.10;;;;;;;16.24;73.12;99882.28;5022110;28;20026;-80
2023/05/21 07:50:00;;;;;;;15.48;10.68;;;;;;;16.34;72.52;99882.94;5021764;28;20077;-79
2023/05/21 07:52:25;;;;;;;18.23;11.47;;;;;;;16.33;72.56;99886.78;5021799;28;20144;-79
2023/05/21 07:54:50;;;;;;;18.65;11.25;;;;;;;16.42;72.27;99888.84;5021746;28;20289;-79
2023/05/21 07:57:15;;;;;;;16.08;10.50;;;;;;;16.47;72.34;99882.44;5022297;28;20067;-79
2023/05/21 07:59:41;;;;;;;22.90;12.10;;;;;;;16.40;72.86;99883.66;5021285;28;20029;-79
2023/05/21 08:02:06;;;;;;;18.30;12.30;;;;;;;16.49;72.99;99893.97;5022643;28;20401;-78
2023/05/21 08:04:32;;;;;;;17.52;10.90;;;;;;;16.50;72.17;99887.34;5022189;28;20445;-78
2023/05/21 08:06:57;;;;;;;21.90;11.95;;;;;;;16.55;72.24;99892.78;5022354;28;20060;-79
2023/05/21 08:09:22;;;;;;;20.13;11.82;;;;;;;16.36;73.24;99890.88;5020478;28;20044;-79
2023/05/21 08:11:47;;;;;;;18.83;12.57;;;;;;;16.38;72.95;99890.56;5020751;28;20553;-79
2023/05/21 08:14:13;;;;;;;21.27;12.30;;;;;;;16.57;72.29;99896.03;5022023;28;20033;-78
2023/05/21 08:16:38;;;;;;;18.07;11.77;;;;;;;16.67;72.58;99906.03;5021261;28;20053;-79
2023/05/21 08:19:03;;;;;;;17.17;10.63;;;;;;;16.47;73.04;99902.53;5021345;28;20033;-80
2023/05/21 08:21:28;;;;;;;21.63;12.47;;;;;;;16.59;73.01;99895.72;5021788;28;20291;-78
2023/05/21 08:23:54;;;;;;;18.30;11.73;;;;;;;16.56;72.74;99894.38;5021298;28;21302;-78
2023/05/21 08:26:20;;;;;;;18.23;11.38;;;;;;;16.72;72.36;99908.69;5021340;28;20262;-79
2023/05/21 08:28:45;;;;;;;20.88;11.20;;;;;;;16.85;71.75;99909.03;5021279;28;20640;-79
2023/05/21 08:31:11;;;;;;;17.42;11.82;;;;;;;16.92;71.69;99910.25;5023585;28;20073;-80
2023/05/21 08:33:37;;;;;;;17.42;10.60;;;;;;;16.96;71.95;99906.91;5024715;28;20121;-79
2023/05/21 08:36:04;;;;;;;18.15;10.93;;;;;;;17.04;71.31;99908.94;5025589;28;20120;-79
2023/05/21 08:38:30;;;;;;;17.33;12.25;;;;;;;17.12;70.86;99910.16;5024978;28;20041;-79
2023/05/21 08:40:56;;;;;;;16.70;10.18;;;;;;;17.09;71.12;99910.78;5025386;28;20053;-80
2023/05/21 08:43:23;;;;;;;18.02;12.32;;;;;;;17.19;71.22;99916.09;5025511;28;20037;-79
2023/05/21 08:45:53;;;;;;;18.85;11.95;;;;;;;17.27;70.50;99917.31;5026054;28;20056;-78
2023/05/21 08:48:21;;;;;;;19.90;11.98;;;;;;;17.32;70.41;99903.47;5025765;28;20037;-79
2023/05/21 08:50:48;;;;;;;18.38;10.48;;;;;;;17.39;70.17;99914.88;5025790;28;21216;-79
2023/05/21 08:53:13;;;;;;;16.58;11.52;;;;;;;17.44;69.95;99902.94;5025355;28;20387;-79
2023/05/21 08:55:41;;;;;;;17.30;11.60;;;;;;;17.44;70.19;99910.38;5025621;28;20150;-79
2023/05/21 08:58:06;;;;;;;22.58;12.70;;;;;;;17.43;70.40;99903.25;5025443;28;20258;-80
2023/05/21 09:00:32;;;;;;;16.67;10.37;;;;;;;17.53;69.91;99897.53;5025959;28;20045;-78
2023/05/21 09:02:59;;;;;;;22.53;12.03;;;;;;;17.57;69.98;99895.78;5025408;28;20308;-79
2023/05/21 09:05:25;;;;;;;22.38;12.30;;;;;;;17.70;69.45;99902.38;5025376;28;20278;-79
2023/05/21 09:07:53;;;;;;;20.83;11.90;;;;;;;17.73;69.59;99904.53;5024356;28;20048;-80
2023/05/21 09:10:25;;;;;;;18.45;11.50;;;;;;;17.76;69.98;99897.56;5025229;28;20080;-82
2023/05/21 09:12:51;;;;;;;34.83;13.32;;;;;;;18.01;68.82;99891.78;5026698;28;20053;-85
2023/05/21 09:15:16;;;;;;;27.42;13.43;;;;;;;18.06;68.11;99894.44;5025027;28;20045;-82
2023/05/21 09:17:45;;;;;;;16.30;9.90;;;;;;;18.12;68.65;99892.34;5025269;28;20037;-80
2023/05/21 09:20:14;;;;;;;18.35;11.63;;;;;;;18.14;68.26;99888.16;5024717;28;20503;-78
2023/05/21 09:22:42;;;;;;;19.30;11.73;;;;;;;18.18;67.70;99882.84;5024791;28;20128;-77
2023/05/21 09:25:09;;;;;;;22.52;11.98;;;;;;;18.15;68.01;99884.25;5023646;28;20042;-77
2023/05/21 09:27:35;;;;;;;15.85;11.40;;;;;;;18.19;67.91;99878.97;5025186;28;20035;-76
2023/05/21 09:30:02;;;;;;;24.55;12.40;;;;;;;18.25;67.43;99877.69;5024386;28;20049;-77
2023/05/21 09:32:27;;;;;;;17.42;11.40;;;;;;;18.26;67.23;99879.34;5025135;28;20038;-80
2023/05/21 09:34:53;;;;;;;21.77;12.47;;;;;;;18.35;66.80;99875.81;5024774;28;20479;-79
2023/05/21 09:37:19;;;;;;;21.60;12.83;;;;;;;18.37;66.93;99874.38;5025062;28;20342;-79
2023/05/21 09:39:46;;;;;;;18.58;11.20;;;;;;;18.43;66.48;99872.28;5024121;28;20786;-80
2023/05/21 09:42:12;;;;;;;26.13;13.52;;;;;;;18.48;66.27;99869.41;5024397;28;20121;-80
2023/05/21 09:44:37;;;;;;;17.45;10.30;;;;;;;18.53;66.48;99860.97;5040610;28;20033;-83
2023/05/21 09:47:03;;;;;;;21.20;13.57;;;;;;;18.55;66.53;99869.75;5024943;28;20038;-81
2023/05/21 09:49:29;;;;;;;20.45;13.07;;;;;;;18.61;66.17;99866.88;5024382;28;20033;-79
2023/05/21 09:51:55;;;;;;;28.42;16.15;;;;;;;18.69;66.25;99873.56;5024387;28;20045;-84
2023/05/21 09:54:22;;;;;;;20.33;12.35;;;;;;;18.78;65.82;99863.38;5025560;28;20033;-77
2023/05/21 09:56:47;;;;;;;19.40;13.48;;;;;;;18.78;65.49;99863.38;5024168;28;20164;-75
2023/05/21 09:59:12;;;;;;;19.23;11.52;;;;;;;18.81;65.88;99859.16;5024316;28;20043;-76
2023/05/21 10:01:38;;;;;;;18.88;11.88;;;;;;;18.68;67.32;99861.72;5024612;28;20549;-78
2023/05/21 10:04:06;;;;;;;22.33;14.65;;;;;;;18.74;66.03;99860.44;5023883;28;20454;-79
2023/05/21 10:06:35;;;;;;;26.83;16.90;;;;;;;18.77;66.49;99859.78;5024016;28;20859;-79
2023/05/21 10:09:05;;;;;;;24.08;14.70;;;;;;;18.73;66.19;99858.78;5023999;28;20048;-78
2023/05/21 10:11:32;;;;;;;20.27;14.10;;;;;;;18.81;66.20;99848.13;5024384;28;20049;-79
2023/05/21 10:14:05;;;;;;;18.48;13.52;;;;;;;18.84;65.83;99845.53;5023913;28;20044;-78
2023/05/21 10:16:32;;;;;;;24.02;13.38;;;;;;;18.87;66.09;99841.31;5023356;28;20053;-78
2023/05/21 10:18:58;;;;;;;26.00;14.07;;;;;;;18.78;66.30;99844.88;5023790;28;20127;-79
2023/05/21 10:21:25;;;;;;;22.70;14.73;;;;;;;18.83;66.82;99840.34;5023860;28;20207;-82
2023/05/21 10:23:50;;;;;;;20.60;13.20;;;;;;;18.95;66.55;99837.78;5023277;28;20025;-76
2023/05/21 10:26:17;;;;;;;23.83;14.88;;;;;;;18.95;66.86;99840.53;5023621;28;20048;-76
2023/05/21 10:28:43;;;;;;;19.13;13.00;;;;;;;19.04;67.05;99845.28;5022203;28;20037;-76
2023/05/21 10:31:10;;;;;;;21.80;13.88;;;;;;;19.12;66.70;99841.72;5023287;28;20037;-77
2023/05/21 10:33:37;;;;;;;31.45;14.48;;;;;;;19.18;66.56;99839.66;5022868;28;20060;-77
2023/05/21 10:36:02;;;;;;;20.88;12.00;;;;;;;19.24;66.75;99841.16;5022810;28;20055;-76
2023/05/21 10:38:28;;;;;;;22.05;14.82;;;;;;;19.20;67.03;99838.19;5023210;28;20478;-76
2023/05/21 10:40:54;;;;;;;21.35;14.25;;;;;;;19.28;68.02;99846.84;5023199;28;20091;-78
2023/05/21 10:43:48;;;;;;;17.80;11.63;;;;;;;19.31;67.12;99833.19;5023425;28;20037;-78
2023/05/21 10:46:24;;;;;;;21.33;13.50;;;;;;;19.36;66.71;99834.97;5022994;28;21108;-78
2023/05/21 10:49:18;;;;;;;20.75;12.68;;;;;;;19.41;66.48;99829.28;5022944;28;20037;-76
2023/05/21 10:52:06;;;;;;;20.58;13.38;;;;;;;19.34;67.07;99831.72;5023003;28;20033;-77
2023/05/21 10:54:53;;;;;;;23.65;14.43;;;;;;;19.34;66.69;99821.47;5021789;28;20915;-77
2023/05/21 10:57:43;;;;;;;24.50;14.10;;;;;;;19.36;66.67;99818.41;5023066;28;20051;-76
2023/05/21 11:00:11;;;;;;;26.50;16.52;;;;;;;19.45;66.73;99819.22;5022820;28;20516;-77
2023/05/21 11:02:37;;;;;;;22.20;14.13;;;;;;;19.55;66.88;99818.06;5022668;28;20063;-76
2023/05/21 11:05:03;;;;;;;26.40;15.52;;;;;;;19.60;66.34;99814.34;5022646;28;21232;-76
2023/05/21 11:07:55;;;;;;;21.77;13.23;;;;;;;19.55;67.13;99811.72;5021012;28;20041;-77
2023/05/21 11:10:31;;;;;;;20.88;15.40;;;;;;;19.59;66.61;99815.47;5021105;28;20400;-77
2023/05/21 11:13:13;;;;;;;20.15;13.38;;;;;;;19.59;66.54;99809.94;5022434;28;20110;-77